Etusivu
METAR-TAF:

METAR-TAF

Lentoasemat :

Detroit Lakes, Minnesota, Yhdysvallat

Leveyspiiri: 46-50N, Pituuspiiri: 095-53W, korkeus merenpinnasta: 426 m

Tämänhetkinen sää

Tämä raportti tehtiin 19 minuuttia sitten, kello 10.35 UTC
Tuuli 16 kn pohjoisen/luoteesta puuskistuen 20 kn:hen
Lämpötila -2°C
Kosteus 100%
Ilmanpaine 1014 hPa
Näkyvyys: 8.0 km
Pilvistä 200 ft:n korkeudessa
utua

METAR: KDTL 211035Z AUTO 34016G20KT 5SM BR OVC002 M02/M02 A2993 RMK AO2

Aika: 04:54 (10:54 UTC)


TAF: puuttuu

Säähavainnot ja -ennusteet yli 4000 lentoasemalta (METAR- ja TAF-raportit).

Käytössä olevat sääasemat on merkitty karttaan keltaisilla ja punaisilla pisteillä.

Aseta hiiri pisteen päälle nähdäksesi sääaseman nimen.

Klikkaa sitten nähdäksesi säähavainnot ja -ennusteet.

Kartan vaihtaminen: klikkaa mustalla rastilla varustettuja vihreitä pisteitä, niin voit zoomata sisään; viivalla varustettua vihreää pistettä, niin voit zoomata ulos tai vihreitä nuolia, niin pääset viereisille kartoille.


METAR-TAF: